Avalon, Victoria

4:13 PM AEST on September 22, 2014 (GMT +1000)
Avalon | Change Station
CLOSE
Current Station
Airport
Location: Avalon,
Elevation: 33 ft
Nearby Weather Stations

Elev 33 ft 38.03 °S, 144.48 °E | Updated 13 minutes ago

Clear
Clear
70 °F
Feels Like 70 °F
N
10
Wind Variable Wind from SE

Today
High -- | Low -- °F
--% Chance of Precip.
Yesterday
High -- | Low -- °F
Precip. -- in
6:12 AM 6:18 PM
Waning Crescent, 4% visible
Pressure 30.27 in
Visibility 6.2 miles
Clouds
Dew Point 45 °F
Humidity 40%
Rainfall 0.00 in
Snow Depth Not available.
UV Not available.
Pollen Not available.
Air Quality Not available.
Flu Activity Not available.
METAR YMAV 220600Z AUTO 13009KT 9999 // NCD 21/07 Q1025

More Conditions Fewer Conditions

Pressure 30.27 in
Visibility 6.2 miles
Clouds
Dew Point 45 °F
Humidity 40%
Rainfall 0.00 in
Snow Depth Not available.
UV Not available.
Pollen Not available.
Air Quality Not available.
Flu Activity Not available.
METAR YMAV 220600Z AUTO 13009KT 9999 // NCD 21/07 Q1025

More Conditions Fewer Conditions

10-Day Weather Forecast

Almanac

Astronomy

Sep. 22, 2014 Rise Set
Actual Time 6:12 AM AEST 6:18 PM AEST
Civil Twilight 5:46 AM AEST 6:44 PM AEST
Nautical Twilight 5:15 AM AEST 7:15 PM AEST
Astronomical Twilight 4:44 AM AEST 7:46 PM AEST
Moon 4:51 AM AEST 4:30 PM AEST
Length of Visible Light 12h 58m
Length of Day
12h 05m
Tomorrow will be 2m 26s longer.
Waning Crescent, 4% of the Moon is Illuminated
Today
Waning Crescent
Sep 24
New
Oct 1
First Quarter
Oct 8
Full
Oct 15
Last Quarter

Yesterday's Extremes

Country Highs Country Lows

Community

WunderPhotos

Upload Photos

1,755,392 photos uploaded!

Nearby

Snow Depth

Not available.

Earthquake Activity

City Distance Mag. Time & Date
No recent earthquake activity has been reported nearby.
Minimum magnitude displayed is 2.5.

Coastal Water Temperatures

Place Temperature
No Stations Reporting

Nearby Weather Stations